sensor_id;sensor_type;location;lat;lon;timestamp;temperature;humidity
19164;DHT22;9714;51.208;4.242;2022-10-28T00:01:02;17.60;99.90
19164;DHT22;9714;51.208;4.242;2022-10-28T00:03:29;17.60;99.90
19164;DHT22;9714;51.208;4.242;2022-10-28T00:06:01;17.60;99.90
19164;DHT22;9714;51.208;4.242;2022-10-28T00:08:29;17.70;99.90
19164;DHT22;9714;51.208;4.242;2022-10-28T00:11:02;17.70;99.90
19164;DHT22;9714;51.208;4.242;2022-10-28T00:13:30;17.90;99.90
19164;DHT22;9714;51.208;4.242;2022-10-28T00:16:08;17.90;99.90
19164;DHT22;9714;51.208;4.242;2022-10-28T00:18:35;17.90;99.90
19164;DHT22;9714;51.208;4.242;2022-10-28T00:21:04;17.90;99.90
19164;DHT22;9714;51.208;4.242;2022-10-28T00:23:32;18.00;99.90
19164;DHT22;9714;51.208;4.242;2022-10-28T00:26:07;18.10;99.90
19164;DHT22;9714;51.208;4.242;2022-10-28T00:28:35;18.10;99.90
19164;DHT22;9714;51.208;4.242;2022-10-28T00:31:08;18.10;99.90
19164;DHT22;9714;51.208;4.242;2022-10-28T00:33:35;18.10;99.90
19164;DHT22;9714;51.208;4.242;2022-10-28T00:36:15;18.20;99.90
19164;DHT22;9714;51.208;4.242;2022-10-28T00:38:45;18.20;99.90
19164;DHT22;9714;51.208;4.242;2022-10-28T00:41:14;18.30;99.90
19164;DHT22;9714;51.208;4.242;2022-10-28T00:43:44;18.30;99.90
19164;DHT22;9714;51.208;4.242;2022-10-28T00:46:27;18.30;99.90
19164;DHT22;9714;51.208;4.242;2022-10-28T00:48:59;18.20;99.90
19164;DHT22;9714;51.208;4.242;2022-10-28T00:51:29;18.20;99.90
19164;DHT22;9714;51.208;4.242;2022-10-28T00:53:57;18.20;99.90
19164;DHT22;9714;51.208;4.242;2022-10-28T00:56:28;18.20;99.90
19164;DHT22;9714;51.208;4.242;2022-10-28T00:58:59;18.30;99.90
19164;DHT22;9714;51.208;4.242;2022-10-28T01:01:28;18.30;99.90
19164;DHT22;9714;51.208;4.242;2022-10-28T01:03:55;18.10;99.90
19164;DHT22;9714;51.208;4.242;2022-10-28T01:06:24;18.20;99.90
19164;DHT22;9714;51.208;4.242;2022-10-28T01:08:52;18.10;99.90
19164;DHT22;9714;51.208;4.242;2022-10-28T01:11:51;18.10;99.90
19164;DHT22;9714;51.208;4.242;2022-10-28T01:14:35;18.10;99.90
19164;DHT22;9714;51.208;4.242;2022-10-28T01:17:30;18.10;99.90
19164;DHT22;9714;51.208;4.242;2022-10-28T01:20:37;18.20;99.90
19164;DHT22;9714;51.208;4.242;2022-10-28T01:23:16;18.30;99.90
19164;DHT22;9714;51.208;4.242;2022-10-28T01:26:10;18.30;99.90
19164;DHT22;9714;51.208;4.242;2022-10-28T01:29:09;18.30;99.90
19164;DHT22;9714;51.208;4.242;2022-10-28T01:31:43;18.10;99.90
19164;DHT22;9714;51.208;4.242;2022-10-28T01:34:18;18.10;99.90
19164;DHT22;9714;51.208;4.242;2022-10-28T01:36:55;18.00;99.90
19164;DHT22;9714;51.208;4.242;2022-10-28T01:39:28;18.00;99.90
19164;DHT22;9714;51.208;4.242;2022-10-28T01:42:05;18.00;99.90
19164;DHT22;9714;51.208;4.242;2022-10-28T01:44:40;17.90;99.90
19164;DHT22;9714;51.208;4.242;2022-10-28T01:47:15;17.90;99.90
19164;DHT22;9714;51.208;4.242;2022-10-28T01:49:48;17.90;99.90
19164;DHT22;9714;51.208;4.242;2022-10-28T01:52:21;18.00;99.90
19164;DHT22;9714;51.208;4.242;2022-10-28T01:54:56;18.00;99.90
19164;DHT22;9714;51.208;4.242;2022-10-28T01:57:25;17.90;99.90
19164;DHT22;9714;51.208;4.242;2022-10-28T01:59:54;17.80;99.90
19164;DHT22;9714;51.208;4.242;2022-10-28T02:02:24;17.90;99.90
19164;DHT22;9714;51.208;4.242;2022-10-28T02:05:00;17.90;99.90
19164;DHT22;9714;51.208;4.242;2022-10-28T02:07:28;17.90;99.90
19164;DHT22;9714;51.208;4.242;2022-10-28T02:10:02;18.00;99.90
19164;DHT22;9714;51.208;4.242;2022-10-28T02:12:31;18.00;99.90
19164;DHT22;9714;51.208;4.242;2022-10-28T02:15:24;17.90;99.90
19164;DHT22;9714;51.208;4.242;2022-10-28T02:18:05;17.90;99.90
19164;DHT22;9714;51.208;4.242;2022-10-28T02:20:42;18.10;99.90
19164;DHT22;9714;51.208;4.242;2022-10-28T02:23:21;18.00;99.90
19164;DHT22;9714;51.208;4.242;2022-10-28T02:25:55;17.90;99.90
19164;DHT22;9714;51.208;4.242;2022-10-28T02:28:28;17.90;99.90
19164;DHT22;9714;51.208;4.242;2022-10-28T02:31:02;17.90;99.90
19164;DHT22;9714;51.208;4.242;2022-10-28T02:33:34;17.90;99.90
19164;DHT22;9714;51.208;4.242;2022-10-28T02:36:05;17.90;99.90
19164;DHT22;9714;51.208;4.242;2022-10-28T02:38:36;18.00;99.90
19164;DHT22;9714;51.208;4.242;2022-10-28T02:41:08;18.10;99.90
19164;DHT22;9714;51.208;4.242;2022-10-28T02:43:41;18.00;99.90
19164;DHT22;9714;51.208;4.242;2022-10-28T02:46:10;18.10;99.90
19164;DHT22;9714;51.208;4.242;2022-10-28T02:48:43;17.90;99.90
19164;DHT22;9714;51.208;4.242;2022-10-28T02:51:13;17.80;99.90
19164;DHT22;9714;51.208;4.242;2022-10-28T02:53:46;17.80;99.90
19164;DHT22;9714;51.208;4.242;2022-10-28T02:56:17;17.70;99.90
19164;DHT22;9714;51.208;4.242;2022-10-28T02:58:46;17.70;99.90
19164;DHT22;9714;51.208;4.242;2022-10-28T03:01:20;17.80;99.90
19164;DHT22;9714;51.208;4.242;2022-10-28T03:03:48;17.70;99.90
19164;DHT22;9714;51.208;4.242;2022-10-28T03:06:16;17.70;99.90
19164;DHT22;9714;51.208;4.242;2022-10-28T03:08:45;17.60;99.90
19164;DHT22;9714;51.208;4.242;2022-10-28T03:11:12;17.60;99.90
19164;DHT22;9714;51.208;4.242;2022-10-28T03:13:39;17.50;99.90
19164;DHT22;9714;51.208;4.242;2022-10-28T03:16:12;17.50;99.90
19164;DHT22;9714;51.208;4.242;2022-10-28T03:18:39;17.60;99.90
19164;DHT22;9714;51.208;4.242;2022-10-28T03:21:08;17.60;99.90
19164;DHT22;9714;51.208;4.242;2022-10-28T03:23:35;17.50;99.90
19164;DHT22;9714;51.208;4.242;2022-10-28T03:26:04;17.50;99.90
19164;DHT22;9714;51.208;4.242;2022-10-28T03:28:31;17.60;99.90
19164;DHT22;9714;51.208;4.242;2022-10-28T03:30:59;17.60;99.90
19164;DHT22;9714;51.208;4.242;2022-10-28T03:33:26;17.50;99.90
19164;DHT22;9714;51.208;4.242;2022-10-28T03:35:53;17.50;99.90
19164;DHT22;9714;51.208;4.242;2022-10-28T03:38:27;17.50;99.90
19164;DHT22;9714;51.208;4.242;2022-10-28T03:40:55;17.50;99.90
19164;DHT22;9714;51.208;4.242;2022-10-28T03:43:22;17.40;99.90
19164;DHT22;9714;51.208;4.242;2022-10-28T03:45:50;17.40;99.90
19164;DHT22;9714;51.208;4.242;2022-10-28T03:48:18;17.30;99.90
19164;DHT22;9714;51.208;4.242;2022-10-28T03:50:51;17.40;99.90
19164;DHT22;9714;51.208;4.242;2022-10-28T03:53:20;17.50;99.90
19164;DHT22;9714;51.208;4.242;2022-10-28T03:55:52;17.40;99.90
19164;DHT22;9714;51.208;4.242;2022-10-28T03:58:19;17.60;99.90
19164;DHT22;9714;51.208;4.242;2022-10-28T04:00:46;17.50;99.90
19164;DHT22;9714;51.208;4.242;2022-10-28T04:03:13;17.50;99.90
19164;DHT22;9714;51.208;4.242;2022-10-28T04:05:43;17.60;99.90
19164;DHT22;9714;51.208;4.242;2022-10-28T04:08:11;17.70;99.90
19164;DHT22;9714;51.208;4.242;2022-10-28T04:10:39;17.70;99.90
19164;DHT22;9714;51.208;4.242;2022-10-28T04:13:08;17.60;99.90
19164;DHT22;9714;51.208;4.242;2022-10-28T04:15:35;17.50;99.90
19164;DHT22;9714;51.208;4.242;2022-10-28T04:18:03;17.50;99.90
19164;DHT22;9714;51.208;4.242;2022-10-28T04:20:31;17.40;99.90
19164;DHT22;9714;51.208;4.242;2022-10-28T04:22:59;17.40;99.90
19164;DHT22;9714;51.208;4.242;2022-10-28T04:25:26;17.40;99.90
19164;DHT22;9714;51.208;4.242;2022-10-28T04:27:53;17.30;99.90
19164;DHT22;9714;51.208;4.242;2022-10-28T04:30:22;17.40;99.90
19164;DHT22;9714;51.208;4.242;2022-10-28T04:32:49;17.40;99.90
19164;DHT22;9714;51.208;4.242;2022-10-28T04:35:22;17.50;99.90
19164;DHT22;9714;51.208;4.242;2022-10-28T04:37:51;17.50;99.90
19164;DHT22;9714;51.208;4.242;2022-10-28T04:40:18;17.50;99.90
19164;DHT22;9714;51.208;4.242;2022-10-28T04:42:45;17.30;99.90
19164;DHT22;9714;51.208;4.242;2022-10-28T04:45:12;17.20;99.90
19164;DHT22;9714;51.208;4.242;2022-10-28T04:47:42;17.30;99.90
19164;DHT22;9714;51.208;4.242;2022-10-28T04:50:09;17.30;99.90
19164;DHT22;9714;51.208;4.242;2022-10-28T04:52:36;17.20;99.90
19164;DHT22;9714;51.208;4.242;2022-10-28T04:55:05;17.20;99.90
19164;DHT22;9714;51.208;4.242;2022-10-28T04:57:34;17.10;99.90
19164;DHT22;9714;51.208;4.242;2022-10-28T05:00:02;17.00;99.90
19164;DHT22;9714;51.208;4.242;2022-10-28T05:02:29;17.00;99.90
19164;DHT22;9714;51.208;4.242;2022-10-28T05:05:01;17.00;99.90
19164;DHT22;9714;51.208;4.242;2022-10-28T05:07:29;16.90;99.90
19164;DHT22;9714;51.208;4.242;2022-10-28T05:09:56;17.00;99.90
19164;DHT22;9714;51.208;4.242;2022-10-28T05:12:23;17.10;99.90
19164;DHT22;9714;51.208;4.242;2022-10-28T05:14:50;17.10;99.90
19164;DHT22;9714;51.208;4.242;2022-10-28T05:17:17;17.10;99.90
19164;DHT22;9714;51.208;4.242;2022-10-28T05:19:48;17.10;99.90
19164;DHT22;9714;51.208;4.242;2022-10-28T05:22:26;17.00;99.90
19164;DHT22;9714;51.208;4.242;2022-10-28T05:25:02;16.90;99.90
19164;DHT22;9714;51.208;4.242;2022-10-28T05:27:29;17.00;99.90
19164;DHT22;9714;51.208;4.242;2022-10-28T05:30:03;16.90;99.90
19164;DHT22;9714;51.208;4.242;2022-10-28T05:32:31;16.80;99.90
19164;DHT22;9714;51.208;4.242;2022-10-28T05:34:58;16.90;99.90
19164;DHT22;9714;51.208;4.242;2022-10-28T05:37:26;17.00;99.90
19164;DHT22;9714;51.208;4.242;2022-10-28T05:39:54;17.00;99.90
19164;DHT22;9714;51.208;4.242;2022-10-28T05:42:21;17.10;99.90
19164;DHT22;9714;51.208;4.242;2022-10-28T05:44:54;17.00;99.90
19164;DHT22;9714;51.208;4.242;2022-10-28T05:47:23;17.00;99.90
19164;DHT22;9714;51.208;4.242;2022-10-28T05:52:28;17.00;99.90
19164;DHT22;9714;51.208;4.242;2022-10-28T05:54:55;16.90;99.90
19164;DHT22;9714;51.208;4.242;2022-10-28T05:57:22;16.90;99.90
19164;DHT22;9714;51.208;4.242;2022-10-28T05:59:50;17.00;99.90
19164;DHT22;9714;51.208;4.242;2022-10-28T06:02:18;16.90;99.90
19164;DHT22;9714;51.208;4.242;2022-10-28T06:04:45;16.80;99.90
19164;DHT22;9714;51.208;4.242;2022-10-28T06:07:13;16.70;99.90
19164;DHT22;9714;51.208;4.242;2022-10-28T06:09:42;16.90;99.90
19164;DHT22;9714;51.208;4.242;2022-10-28T06:12:10;16.90;99.90
19164;DHT22;9714;51.208;4.242;2022-10-28T06:14:38;16.90;99.90
19164;DHT22;9714;51.208;4.242;2022-10-28T06:17:05;16.80;99.90
19164;DHT22;9714;51.208;4.242;2022-10-28T06:19:31;16.90;99.90
19164;DHT22;9714;51.208;4.242;2022-10-28T06:22:00;16.90;99.90
19164;DHT22;9714;51.208;4.242;2022-10-28T06:24:27;16.90;99.90
19164;DHT22;9714;51.208;4.242;2022-10-28T06:26:56;17.00;99.90
19164;DHT22;9714;51.208;4.242;2022-10-28T06:29:26;16.90;99.90
19164;DHT22;9714;51.208;4.242;2022-10-28T06:31:53;16.90;99.90
19164;DHT22;9714;51.208;4.242;2022-10-28T06:34:22;16.80;99.90
19164;DHT22;9714;51.208;4.242;2022-10-28T06:36:49;16.90;99.90
19164;DHT22;9714;51.208;4.242;2022-10-28T06:39:16;16.90;99.90
19164;DHT22;9714;51.208;4.242;2022-10-28T06:41:45;16.90;99.90
19164;DHT22;9714;51.208;4.242;2022-10-28T06:44:15;17.10;99.90
19164;DHT22;9714;51.208;4.242;2022-10-28T06:46:42;17.00;99.90
19164;DHT22;9714;51.208;4.242;2022-10-28T06:49:11;17.10;99.90
19164;DHT22;9714;51.208;4.242;2022-10-28T06:51:37;17.00;99.90
19164;DHT22;9714;51.208;4.242;2022-10-28T06:54:05;17.10;99.90
19164;DHT22;9714;51.208;4.242;2022-10-28T06:56:32;17.00;99.90
19164;DHT22;9714;51.208;4.242;2022-10-28T06:58:58;17.00;99.90
19164;DHT22;9714;51.208;4.242;2022-10-28T07:01:27;17.10;99.90
19164;DHT22;9714;51.208;4.242;2022-10-28T07:03:54;17.10;99.90
19164;DHT22;9714;51.208;4.242;2022-10-28T07:06:22;17.10;99.90
19164;DHT22;9714;51.208;4.242;2022-10-28T07:08:51;17.10;99.90
19164;DHT22;9714;51.208;4.242;2022-10-28T07:11:21;17.00;99.90
19164;DHT22;9714;51.208;4.242;2022-10-28T07:13:48;17.10;99.90
19164;DHT22;9714;51.208;4.242;2022-10-28T07:16:16;17.20;99.90
19164;DHT22;9714;51.208;4.242;2022-10-28T07:18:46;17.30;99.90
19164;DHT22;9714;51.208;4.242;2022-10-28T07:21:14;17.30;99.90
19164;DHT22;9714;51.208;4.242;2022-10-28T07:23:49;17.40;99.90
19164;DHT22;9714;51.208;4.242;2022-10-28T07:26:22;17.40;99.90
19164;DHT22;9714;51.208;4.242;2022-10-28T07:28:51;17.50;99.90
19164;DHT22;9714;51.208;4.242;2022-10-28T07:31:20;17.50;99.90
19164;DHT22;9714;51.208;4.242;2022-10-28T07:33:54;17.60;99.90
19164;DHT22;9714;51.208;4.242;2022-10-28T07:36:21;17.70;99.90
19164;DHT22;9714;51.208;4.242;2022-10-28T07:38:48;17.90;99.90
19164;DHT22;9714;51.208;4.242;2022-10-28T07:41:17;18.10;99.90
19164;DHT22;9714;51.208;4.242;2022-10-28T07:43:44;18.10;99.90
19164;DHT22;9714;51.208;4.242;2022-10-28T07:46:11;18.10;99.90
19164;DHT22;9714;51.208;4.242;2022-10-28T07:48:38;18.20;99.90
19164;DHT22;9714;51.208;4.242;2022-10-28T07:51:09;18.10;99.90
19164;DHT22;9714;51.208;4.242;2022-10-28T07:53:37;18.20;99.90
19164;DHT22;9714;51.208;4.242;2022-10-28T07:56:07;18.30;99.90
19164;DHT22;9714;51.208;4.242;2022-10-28T07:58:37;18.40;99.90
19164;DHT22;9714;51.208;4.242;2022-10-28T08:01:06;18.50;99.90
19164;DHT22;9714;51.208;4.242;2022-10-28T08:03:34;18.70;99.90
19164;DHT22;9714;51.208;4.242;2022-10-28T08:06:05;18.70;99.90
19164;DHT22;9714;51.208;4.242;2022-10-28T08:08:35;19.00;99.90
19164;DHT22;9714;51.208;4.242;2022-10-28T08:11:08;19.00;99.90
19164;DHT22;9714;51.208;4.242;2022-10-28T08:13:36;19.10;99.90
19164;DHT22;9714;51.208;4.242;2022-10-28T08:16:03;19.40;99.90
19164;DHT22;9714;51.208;4.242;2022-10-28T08:18:30;19.20;99.90
19164;DHT22;9714;51.208;4.242;2022-10-28T08:20:58;19.10;99.90
19164;DHT22;9714;51.208;4.242;2022-10-28T08:23:27;19.10;99.90
19164;DHT22;9714;51.208;4.242;2022-10-28T08:25:55;19.00;99.90
19164;DHT22;9714;51.208;4.242;2022-10-28T08:28:28;19.10;99.90
19164;DHT22;9714;51.208;4.242;2022-10-28T08:30:59;19.30;99.90
19164;DHT22;9714;51.208;4.242;2022-10-28T08:33:27;19.40;99.90
19164;DHT22;9714;51.208;4.242;2022-10-28T08:35:53;19.40;99.90
19164;DHT22;9714;51.208;4.242;2022-10-28T08:38:20;19.50;99.90
19164;DHT22;9714;51.208;4.242;2022-10-28T08:40:56;19.60;99.90
19164;DHT22;9714;51.208;4.242;2022-10-28T08:43:33;19.80;99.90
19164;DHT22;9714;51.208;4.242;2022-10-28T08:46:11;20.20;99.90
19164;DHT22;9714;51.208;4.242;2022-10-28T08:48:39;20.50;99.90
19164;DHT22;9714;51.208;4.242;2022-10-28T08:51:13;20.70;99.90
19164;DHT22;9714;51.208;4.242;2022-10-28T08:53:46;21.00;99.90
19164;DHT22;9714;51.208;4.242;2022-10-28T08:56:24;21.20;99.90
19164;DHT22;9714;51.208;4.242;2022-10-28T08:58:56;22.00;99.90
19164;DHT22;9714;51.208;4.242;2022-10-28T09:01:34;22.60;99.90
19164;DHT22;9714;51.208;4.242;2022-10-28T09:04:12;23.00;99.90
19164;DHT22;9714;51.208;4.242;2022-10-28T09:06:43;23.50;99.90
19164;DHT22;9714;51.208;4.242;2022-10-28T09:09:17;24.30;99.90
19164;DHT22;9714;51.208;4.242;2022-10-28T09:11:55;24.30;99.90
19164;DHT22;9714;51.208;4.242;2022-10-28T09:14:37;24.80;99.90
19164;DHT22;9714;51.208;4.242;2022-10-28T09:17:16;25.20;99.90
19164;DHT22;9714;51.208;4.242;2022-10-28T09:19:47;25.10;99.90
19164;DHT22;9714;51.208;4.242;2022-10-28T09:22:23;25.30;99.90
19164;DHT22;9714;51.208;4.242;2022-10-28T09:25:00;25.90;99.90
19164;DHT22;9714;51.208;4.242;2022-10-28T09:27:42;26.10;99.90
19164;DHT22;9714;51.208;4.242;2022-10-28T09:30:29;26.20;99.90
19164;DHT22;9714;51.208;4.242;2022-10-28T09:33:08;26.50;99.90
19164;DHT22;9714;51.208;4.242;2022-10-28T09:35:45;26.50;99.90
19164;DHT22;9714;51.208;4.242;2022-10-28T09:38:19;26.10;99.90
19164;DHT22;9714;51.208;4.242;2022-10-28T09:40:51;26.20;99.90
19164;DHT22;9714;51.208;4.242;2022-10-28T09:43:24;25.90;99.90
19164;DHT22;9714;51.208;4.242;2022-10-28T09:46:03;25.70;99.90
19164;DHT22;9714;51.208;4.242;2022-10-28T09:48:33;25.30;99.90
19164;DHT22;9714;51.208;4.242;2022-10-28T09:51:04;25.70;99.90
19164;DHT22;9714;51.208;4.242;2022-10-28T09:53:39;26.20;99.90
19164;DHT22;9714;51.208;4.242;2022-10-28T09:56:13;26.50;99.90
19164;DHT22;9714;51.208;4.242;2022-10-28T09:58:44;26.80;99.90
19164;DHT22;9714;51.208;4.242;2022-10-28T10:01:14;27.20;99.90
19164;DHT22;9714;51.208;4.242;2022-10-28T10:03:42;27.00;99.90
19164;DHT22;9714;51.208;4.242;2022-10-28T10:06:13;27.60;99.90
19164;DHT22;9714;51.208;4.242;2022-10-28T10:08:41;27.80;99.90
19164;DHT22;9714;51.208;4.242;2022-10-28T10:11:16;27.70;99.90
19164;DHT22;9714;51.208;4.242;2022-10-28T10:13:50;27.70;99.90
19164;DHT22;9714;51.208;4.242;2022-10-28T10:16:25;27.60;99.90
19164;DHT22;9714;51.208;4.242;2022-10-28T10:18:54;26.50;99.90
19164;DHT22;9714;51.208;4.242;2022-10-28T10:21:40;26.00;99.90
19164;DHT22;9714;51.208;4.242;2022-10-28T10:24:25;25.30;99.90
19164;DHT22;9714;51.208;4.242;2022-10-28T10:26:54;25.20;99.90
19164;DHT22;9714;51.208;4.242;2022-10-28T10:29:25;24.90;99.90
19164;DHT22;9714;51.208;4.242;2022-10-28T10:32:12;24.70;99.90
19164;DHT22;9714;51.208;4.242;2022-10-28T10:34:43;24.20;99.90
19164;DHT22;9714;51.208;4.242;2022-10-28T10:37:17;24.10;99.90
19164;DHT22;9714;51.208;4.242;2022-10-28T10:40:06;24.10;99.90
19164;DHT22;9714;51.208;4.242;2022-10-28T10:42:38;24.00;99.90
19164;DHT22;9714;51.208;4.242;2022-10-28T10:45:19;23.70;99.90
19164;DHT22;9714;51.208;4.242;2022-10-28T10:47:48;23.90;99.90
19164;DHT22;9714;51.208;4.242;2022-10-28T10:50:31;23.80;99.90
19164;DHT22;9714;51.208;4.242;2022-10-28T10:53:01;23.90;99.90
19164;DHT22;9714;51.208;4.242;2022-10-28T10:55:34;24.10;99.90
19164;DHT22;9714;51.208;4.242;2022-10-28T10:58:02;23.90;99.90
19164;DHT22;9714;51.208;4.242;2022-10-28T11:00:34;23.80;99.90
19164;DHT22;9714;51.208;4.242;2022-10-28T11:03:04;23.70;99.90
19164;DHT22;9714;51.208;4.242;2022-10-28T11:05:34;23.50;99.90
19164;DHT22;9714;51.208;4.242;2022-10-28T11:08:02;23.50;99.90
19164;DHT22;9714;51.208;4.242;2022-10-28T11:10:33;23.50;99.90
19164;DHT22;9714;51.208;4.242;2022-10-28T11:13:04;23.60;99.90
19164;DHT22;9714;51.208;4.242;2022-10-28T11:15:36;23.70;99.90
19164;DHT22;9714;51.208;4.242;2022-10-28T11:18:16;23.90;99.90
19164;DHT22;9714;51.208;4.242;2022-10-28T11:20:56;24.10;99.90
19164;DHT22;9714;51.208;4.242;2022-10-28T11:23:38;24.40;99.90
19164;DHT22;9714;51.208;4.242;2022-10-28T11:26:13;24.40;99.90
19164;DHT22;9714;51.208;4.242;2022-10-28T11:32:09;25.20;99.90
19164;DHT22;9714;51.208;4.242;2022-10-28T11:34:52;25.00;99.90
19164;DHT22;9714;51.208;4.242;2022-10-28T11:37:28;24.50;99.90
19164;DHT22;9714;51.208;4.242;2022-10-28T11:40:07;24.40;99.90
19164;DHT22;9714;51.208;4.242;2022-10-28T11:42:44;24.40;99.90
19164;DHT22;9714;51.208;4.242;2022-10-28T11:45:17;24.20;99.90
19164;DHT22;9714;51.208;4.242;2022-10-28T11:48:04;24.10;99.90
19164;DHT22;9714;51.208;4.242;2022-10-28T11:50:54;24.00;99.90
19164;DHT22;9714;51.208;4.242;2022-10-28T11:53:44;23.70;99.90
19164;DHT22;9714;51.208;4.242;2022-10-28T11:56:28;23.80;99.90
19164;DHT22;9714;51.208;4.242;2022-10-28T11:59:25;23.80;99.90
19164;DHT22;9714;51.208;4.242;2022-10-28T12:02:08;23.80;99.90
19164;DHT22;9714;51.208;4.242;2022-10-28T12:05:02;23.70;99.90
19164;DHT22;9714;51.208;4.242;2022-10-28T12:07:46;23.60;99.90
19164;DHT22;9714;51.208;4.242;2022-10-28T12:10:31;23.70;99.90
19164;DHT22;9714;51.208;4.242;2022-10-28T12:13:07;23.70;99.90
19164;DHT22;9714;51.208;4.242;2022-10-28T12:15:45;23.80;99.90
19164;DHT22;9714;51.208;4.242;2022-10-28T12:18:21;23.70;99.90
19164;DHT22;9714;51.208;4.242;2022-10-28T12:20:56;23.70;99.90
19164;DHT22;9714;51.208;4.242;2022-10-28T12:23:24;23.70;99.90
19164;DHT22;9714;51.208;4.242;2022-10-28T12:25:54;23.90;99.90
19164;DHT22;9714;51.208;4.242;2022-10-28T12:28:26;24.10;99.90
19164;DHT22;9714;51.208;4.242;2022-10-28T12:30:55;24.20;99.90
19164;DHT22;9714;51.208;4.242;2022-10-28T12:33:26;24.40;99.90
19164;DHT22;9714;51.208;4.242;2022-10-28T12:36:09;24.70;99.90
19164;DHT22;9714;51.208;4.242;2022-10-28T12:38:41;24.80;99.90
19164;DHT22;9714;51.208;4.242;2022-10-28T12:41:13;24.90;99.90
19164;DHT22;9714;51.208;4.242;2022-10-28T12:43:45;25.30;99.90
19164;DHT22;9714;51.208;4.242;2022-10-28T12:46:21;25.80;99.90
19164;DHT22;9714;51.208;4.242;2022-10-28T12:48:53;25.90;99.90
19164;DHT22;9714;51.208;4.242;2022-10-28T12:51:26;26.10;99.90
19164;DHT22;9714;51.208;4.242;2022-10-28T12:53:57;26.40;99.90
19164;DHT22;9714;51.208;4.242;2022-10-28T12:56:30;26.30;99.90
19164;DHT22;9714;51.208;4.242;2022-10-28T12:59:03;26.10;99.90
19164;DHT22;9714;51.208;4.242;2022-10-28T13:01:35;26.30;99.90
19164;DHT22;9714;51.208;4.242;2022-10-28T13:04:10;26.80;99.90
19164;DHT22;9714;51.208;4.242;2022-10-28T13:07:02;27.10;99.90
19164;DHT22;9714;51.208;4.242;2022-10-28T13:09:46;27.50;99.90
19164;DHT22;9714;51.208;4.242;2022-10-28T13:12:37;27.60;99.90
19164;DHT22;9714;51.208;4.242;2022-10-28T13:15:33;28.00;99.90
19164;DHT22;9714;51.208;4.242;2022-10-28T13:18:31;27.70;99.90
19164;DHT22;9714;51.208;4.242;2022-10-28T13:21:08;27.70;99.90
19164;DHT22;9714;51.208;4.242;2022-10-28T13:23:43;27.60;99.90
19164;DHT22;9714;51.208;4.242;2022-10-28T13:26:20;27.40;99.90
19164;DHT22;9714;51.208;4.242;2022-10-28T13:28:51;27.40;99.90
19164;DHT22;9714;51.208;4.242;2022-10-28T13:31:20;27.20;99.90
19164;DHT22;9714;51.208;4.242;2022-10-28T13:33:51;27.40;99.90
19164;DHT22;9714;51.208;4.242;2022-10-28T13:36:25;27.60;99.90
19164;DHT22;9714;51.208;4.242;2022-10-28T13:38:55;27.60;99.90
19164;DHT22;9714;51.208;4.242;2022-10-28T13:41:35;27.20;99.90
19164;DHT22;9714;51.208;4.242;2022-10-28T13:44:22;27.10;99.90
19164;DHT22;9714;51.208;4.242;2022-10-28T13:56:19;27.70;99.90
19164;DHT22;9714;51.208;4.242;2022-10-28T13:58:53;27.50;99.90
19164;DHT22;9714;51.208;4.242;2022-10-28T14:01:37;27.40;99.90
19164;DHT22;9714;51.208;4.242;2022-10-28T14:04:24;27.80;99.90
19164;DHT22;9714;51.208;4.242;2022-10-28T14:07:18;27.80;99.90
19164;DHT22;9714;51.208;4.242;2022-10-28T14:09:50;27.40;99.90
19164;DHT22;9714;51.208;4.242;2022-10-28T14:12:23;26.50;99.90
19164;DHT22;9714;51.208;4.242;2022-10-28T14:15:03;25.80;99.90
19164;DHT22;9714;51.208;4.242;2022-10-28T14:17:37;25.50;99.90
19164;DHT22;9714;51.208;4.242;2022-10-28T14:20:19;25.40;99.90
19164;DHT22;9714;51.208;4.242;2022-10-28T14:22:53;25.30;99.90
19164;DHT22;9714;51.208;4.242;2022-10-28T14:28:51;25.60;99.90
19164;DHT22;9714;51.208;4.242;2022-10-28T14:31:39;25.70;99.90
19164;DHT22;9714;51.208;4.242;2022-10-28T14:34:35;25.60;99.90
19164;DHT22;9714;51.208;4.242;2022-10-28T14:37:40;25.50;99.90
19164;DHT22;9714;51.208;4.242;2022-10-28T14:40:21;25.50;99.90
19164;DHT22;9714;51.208;4.242;2022-10-28T14:43:16;25.40;99.90
19164;DHT22;9714;51.208;4.242;2022-10-28T14:45:57;25.30;99.90
19164;DHT22;9714;51.208;4.242;2022-10-28T14:48:44;25.30;99.90
19164;DHT22;9714;51.208;4.242;2022-10-28T14:51:14;25.10;99.90
19164;DHT22;9714;51.208;4.242;2022-10-28T14:53:42;25.10;99.90
19164;DHT22;9714;51.208;4.242;2022-10-28T14:56:17;25.10;99.90
19164;DHT22;9714;51.208;4.242;2022-10-28T14:58:45;25.00;99.90
19164;DHT22;9714;51.208;4.242;2022-10-28T15:01:26;24.80;99.90
19164;DHT22;9714;51.208;4.242;2022-10-28T15:03:57;24.70;99.90
19164;DHT22;9714;51.208;4.242;2022-10-28T15:06:27;24.80;99.90
19164;DHT22;9714;51.208;4.242;2022-10-28T15:08:56;24.80;99.90
19164;DHT22;9714;51.208;4.242;2022-10-28T15:11:28;24.40;99.90
19164;DHT22;9714;51.208;4.242;2022-10-28T15:14:11;24.40;99.90
19164;DHT22;9714;51.208;4.242;2022-10-28T15:16:45;24.50;99.90
19164;DHT22;9714;51.208;4.242;2022-10-28T15:19:17;24.30;99.90
19164;DHT22;9714;51.208;4.242;2022-10-28T15:21:59;24.30;99.90
19164;DHT22;9714;51.208;4.242;2022-10-28T15:24:26;24.00;99.90
19164;DHT22;9714;51.208;4.242;2022-10-28T15:26:55;23.80;99.90
19164;DHT22;9714;51.208;4.242;2022-10-28T15:29:23;23.70;99.90
19164;DHT22;9714;51.208;4.242;2022-10-28T15:32:13;23.60;99.90
19164;DHT22;9714;51.208;4.242;2022-10-28T15:34:42;23.70;99.90
19164;DHT22;9714;51.208;4.242;2022-10-28T15:37:10;23.40;99.90
19164;DHT22;9714;51.208;4.242;2022-10-28T15:39:50;23.40;99.90
19164;DHT22;9714;51.208;4.242;2022-10-28T15:42:36;23.40;99.90
19164;DHT22;9714;51.208;4.242;2022-10-28T15:45:14;23.30;99.90
19164;DHT22;9714;51.208;4.242;2022-10-28T15:47:45;23.30;99.90
19164;DHT22;9714;51.208;4.242;2022-10-28T15:50:30;23.10;99.90
19164;DHT22;9714;51.208;4.242;2022-10-28T15:53:20;22.90;99.90
19164;DHT22;9714;51.208;4.242;2022-10-28T15:56:06;22.90;99.90
19164;DHT22;9714;51.208;4.242;2022-10-28T15:58:38;22.70;99.90
19164;DHT22;9714;51.208;4.242;2022-10-28T16:01:08;22.60;99.90
19164;DHT22;9714;51.208;4.242;2022-10-28T16:03:45;22.60;99.90
19164;DHT22;9714;51.208;4.242;2022-10-28T16:06:21;22.60;99.90
19164;DHT22;9714;51.208;4.242;2022-10-28T16:09:02;22.60;99.90
19164;DHT22;9714;51.208;4.242;2022-10-28T16:11:31;22.70;99.90
19164;DHT22;9714;51.208;4.242;2022-10-28T16:14:06;22.90;99.90
19164;DHT22;9714;51.208;4.242;2022-10-28T16:16:34;22.70;99.90
19164;DHT22;9714;51.208;4.242;2022-10-28T16:19:07;22.50;99.90
19164;DHT22;9714;51.208;4.242;2022-10-28T16:21:37;22.40;99.90
19164;DHT22;9714;51.208;4.242;2022-10-28T16:24:04;22.60;99.90
19164;DHT22;9714;51.208;4.242;2022-10-28T16:26:31;22.40;99.90
19164;DHT22;9714;51.208;4.242;2022-10-28T16:29:00;22.30;99.90
19164;DHT22;9714;51.208;4.242;2022-10-28T16:31:28;22.30;99.90
19164;DHT22;9714;51.208;4.242;2022-10-28T16:33:58;22.40;99.90
19164;DHT22;9714;51.208;4.242;2022-10-28T16:36:27;22.10;99.90
19164;DHT22;9714;51.208;4.242;2022-10-28T16:38:56;22.10;99.90
19164;DHT22;9714;51.208;4.242;2022-10-28T16:41:30;21.80;99.90